Terminal Aerodrome Forecast
Issued by NWS Knoxville/Tri Cities, TN

Home | Current Version | Previous Version | Text Only | Print | Product List | Glossary On
Versions: 1 2 3 4 5 6 7 8 9 10 11 12 13 14 15 16 17 18 19 20 21 22 23 24
000
FTUS44 KMRX 010542
TAFCHA
TAF
KCHA 010542Z 0106/0206 VRB03KT P6SM SCT150 BKN250
     FM011000 VRB03KT P6SM SCT030 OVC100
     FM011800 35005KT P6SM SCT040 BKN120
     FM012300 04003KT P6SM SCT040 SCT150=

USA.gov is the U.S. government's official web portal to all federal, state and local government web resources and services.